Time;durP1;ratioP1;P1;durP2;ratioP2;P2;SDS_P1;SDS_P2;PMS_P1;PMS_P2;Temp;Humidity;BMP_temperature;BMP_pressure;BME280_temperature;BME280_humidity;BME280_pressure;Samples;Min_cycle;Max_cycle;Signal;HPM_P1;HPM_P2
2023/05/25 00:01:33;;;;;;;7.53;4.80;;;19.00;68.80;;;;;;5056835;28;20024;-66
2023/05/25 00:04:01;;;;;;;9.23;5.30;;;18.90;68.70;;;;;;5056999;28;20055;-66
2023/05/25 00:06:28;;;;;;;8.80;5.18;;;18.90;69.00;;;;;;5056522;28;20355;-66
2023/05/25 00:08:56;;;;;;;7.72;5.00;;;18.90;69.60;;;;;;5056940;28;20095;-66
2023/05/25 00:11:26;;;;;;;9.43;5.63;;;18.90;69.80;;;;;;5056659;28;20044;-66
2023/05/25 00:13:52;;;;;;;14.18;5.70;;;18.90;69.70;;;;;;5056830;28;20079;-66
2023/05/25 00:16:18;;;;;;;9.43;5.63;;;18.90;69.90;;;;;;5056577;28;20082;-66
2023/05/25 00:18:47;;;;;;;9.48;5.22;;;18.90;70.40;;;;;;5055500;28;20119;-66
2023/05/25 00:21:14;;;;;;;8.38;5.28;;;18.80;70.40;;;;;;5056681;28;20033;-66
2023/05/25 00:23:41;;;;;;;8.43;5.63;;;18.80;70.60;;;;;;5056361;28;20100;-66
2023/05/25 00:26:07;;;;;;;8.73;5.95;;;18.80;70.80;;;;;;5056035;28;20047;-66
2023/05/25 00:28:33;;;;;;;11.32;5.97;;;18.80;71.00;;;;;;5055470;28;20397;-67
2023/05/25 00:30:59;;;;;;;10.23;6.57;;;18.70;71.10;;;;;;5056281;28;20020;-66
2023/05/25 00:33:25;;;;;;;9.38;6.45;;;18.70;71.60;;;;;;5056511;28;20025;-67
2023/05/25 00:35:52;;;;;;;11.43;7.32;;;18.70;71.70;;;;;;5056644;28;20497;-66
2023/05/25 00:38:19;;;;;;;12.05;7.10;;;18.60;72.10;;;;;;5056104;28;20033;-66
2023/05/25 00:40:45;;;;;;;9.85;6.78;;;18.60;72.40;;;;;;5056048;28;20032;-66
2023/05/25 00:43:12;;;;;;;10.18;6.78;;;18.60;72.10;;;;;;5056105;28;20033;-66
2023/05/25 00:45:38;;;;;;;14.88;7.80;;;18.60;72.40;;;;;;5056606;28;20021;-65
2023/05/25 00:48:05;;;;;;;11.15;7.22;;;18.60;72.30;;;;;;5056197;28;20036;-66
2023/05/25 00:50:42;;;;;;;14.32;7.90;;;18.50;71.90;;;;;;5056175;28;20063;-66
2023/05/25 00:53:09;;;;;;;12.55;6.60;;;18.50;72.10;;;;;;5055808;28;20033;-66
2023/05/25 00:55:43;;;;;;;11.48;7.78;;;18.50;72.60;;;;;;5055727;28;20025;-65
2023/05/25 00:58:12;;;;;;;12.23;7.80;;;18.50;73.00;;;;;;5056064;28;20025;-65
2023/05/25 01:00:41;;;;;;;12.68;7.82;;;18.40;73.00;;;;;;5055979;28;20032;-67
2023/05/25 01:03:16;;;;;;;9.45;6.50;;;18.40;73.60;;;;;;5055890;28;20029;-65
2023/05/25 01:05:46;;;;;;;9.27;6.70;;;18.40;73.70;;;;;;5055592;28;20455;-65
2023/05/25 01:08:15;;;;;;;9.63;6.20;;;18.30;74.10;;;;;;5055896;28;20036;-66
2023/05/25 01:10:44;;;;;;;8.65;5.97;;;18.30;74.20;;;;;;5055528;28;20028;-67
2023/05/25 01:13:13;;;;;;;11.93;7.53;;;18.20;73.80;;;;;;5055706;28;20103;-65
2023/05/25 01:15:40;;;;;;;10.25;6.70;;;18.10;73.70;;;;;;5055626;28;20025;-66
2023/05/25 01:18:08;;;;;;;10.13;6.30;;;18.20;74.70;;;;;;5055334;28;20460;-66
2023/05/25 01:20:34;;;;;;;9.43;6.43;;;18.10;74.70;;;;;;5055587;28;20151;-66
2023/05/25 01:23:12;;;;;;;10.93;6.78;;;18.10;74.70;;;;;;5055629;28;20167;-66
2023/05/25 01:25:52;;;;;;;12.27;7.32;;;18.00;74.60;;;;;;5055099;28;20037;-67
2023/05/25 01:28:29;;;;;;;11.57;7.72;;;18.00;75.20;;;;;;5055551;28;20021;-66
2023/05/25 01:30:56;;;;;;;10.80;7.10;;;17.90;74.60;;;;;;5055792;28;20028;-66
2023/05/25 01:33:23;;;;;;;8.90;6.72;;;17.90;74.80;;;;;;5055399;28;20435;-65
2023/05/25 01:35:50;;;;;;;11.38;7.07;;;17.90;74.50;;;;;;5055382;28;20136;-66
2023/05/25 01:38:17;;;;;;;10.38;6.78;;;17.90;74.50;;;;;;5055073;28;20043;-65
2023/05/25 01:40:43;;;;;;;13.35;8.48;;;17.90;74.70;;;;;;5054892;28;20083;-66
2023/05/25 01:43:09;;;;;;;11.77;7.70;;;17.90;75.00;;;;;;5055293;28;20076;-66
2023/05/25 01:45:35;;;;;;;11.40;7.28;;;17.90;75.90;;;;;;5054974;28;20461;-66
2023/05/25 01:48:23;;;;;;;11.45;7.22;;;17.90;75.20;;;;;;5055061;28;20028;-66
2023/05/25 01:50:58;;;;;;;10.93;7.60;;;17.90;75.30;;;;;;5053971;28;20025;-66
2023/05/25 01:53:36;;;;;;;11.23;7.22;;;17.90;75.00;;;;;;5055296;28;20431;-66
2023/05/25 01:56:07;;;;;;;13.85;8.38;;;17.90;74.90;;;;;;5055169;28;20081;-65
2023/05/25 01:58:40;;;;;;;11.57;7.43;;;17.90;75.80;;;;;;5054855;28;20401;-65
2023/05/25 02:01:10;;;;;;;;;;;17.90;75.20;;;;;;5055624;28;20108;-65
2023/05/25 02:03:38;;;;;;;9.30;6.18;;;18.00;76.20;;;;;;5054832;28;19995;-67
2023/05/25 02:06:04;;;;;;;9.77;6.20;;;18.00;74.70;;;;;;5054748;28;20071;-65
2023/05/25 02:08:30;;;;;;;8.93;6.07;;;18.00;74.70;;;;;;5055091;28;20021;-65
2023/05/25 02:10:56;;;;;;;8.52;5.95;;;18.00;74.60;;;;;;5054793;28;20029;-66
2023/05/25 02:13:22;;;;;;;8.50;5.88;;;18.00;74.70;;;;;;5055257;28;20021;-65
2023/05/25 02:15:48;;;;;;;9.55;5.82;;;18.10;74.60;;;;;;5055277;28;20055;-66
2023/05/25 02:18:16;;;;;;;7.65;5.30;;;18.10;74.80;;;;;;5054802;28;20070;-65
2023/05/25 02:20:43;;;;;;;8.50;5.40;;;18.10;74.70;;;;;;5055020;28;20037;-66
2023/05/25 02:23:09;;;;;;;8.43;4.90;;;18.10;74.50;;;;;;5054986;28;20052;-67
2023/05/25 02:25:36;;;;;;;7.53;5.35;;;18.10;74.40;;;;;;5054592;28;20049;-66
2023/05/25 02:28:02;;;;;;;8.10;5.10;;;18.00;74.90;;;;;;5055140;28;20029;-66
2023/05/25 02:30:28;;;;;;;8.70;5.82;;;18.00;74.50;;;;;;5054644;28;20017;-66
2023/05/25 02:32:55;;;;;;;7.88;5.30;;;18.00;74.30;;;;;;5054860;28;20101;-66
2023/05/25 02:35:21;;;;;;;9.25;6.03;;;18.00;74.50;;;;;;5054660;28;20025;-65
2023/05/25 02:37:47;;;;;;;8.85;5.38;;;18.00;74.70;;;;;;5054821;28;20053;-66
2023/05/25 02:40:13;;;;;;;9.80;6.63;;;18.00;74.70;;;;;;5054540;28;20056;-66
2023/05/25 02:42:39;;;;;;;11.30;6.78;;;18.00;74.80;;;;;;5054556;28;20103;-66
2023/05/25 02:45:09;;;;;;;13.25;8.35;;;18.00;75.00;;;;;;5054280;28;20463;-66
2023/05/25 02:47:35;;;;;;;10.50;6.68;;;18.00;74.60;;;;;;5054376;28;20028;-66
2023/05/25 02:50:02;;;;;;;8.88;6.20;;;17.90;75.10;;;;;;5054449;28;20052;-65
2023/05/25 02:52:31;;;;;;;10.82;6.88;;;18.00;74.90;;;;;;5056835;28;20020;-66
2023/05/25 02:54:57;;;;;;;11.15;7.00;;;18.00;75.10;;;;;;5057911;28;20476;-65
2023/05/25 02:57:23;;;;;;;11.45;7.22;;;18.00;74.80;;;;;;5058310;28;20075;-67
2023/05/25 02:59:49;;;;;;;7.97;5.70;;;18.00;75.10;;;;;;5058257;28;20083;-66
2023/05/25 03:02:17;;;;;;;8.65;5.82;;;18.00;75.00;;;;;;5057844;28;20331;-66
2023/05/25 03:04:48;;;;;;;9.43;6.35;;;18.00;75.00;;;;;;5056854;28;20036;-66
2023/05/25 03:07:14;;;;;;;10.98;6.30;;;17.90;75.70;;;;;;5056862;28;20032;-66
2023/05/25 03:09:40;;;;;;;8.10;5.97;;;18.00;75.10;;;;;;5058068;28;20092;-65
2023/05/25 03:12:06;;;;;;;8.93;5.95;;;17.90;75.40;;;;;;5058270;28;20446;-66
2023/05/25 03:14:32;;;;;;;10.50;5.90;;;17.90;75.20;;;;;;5057861;28;20482;-65
2023/05/25 03:16:58;;;;;;;9.85;5.40;;;17.90;75.20;;;;;;5057952;28;20032;-67
2023/05/25 03:19:24;;;;;;;7.13;5.47;;;17.90;75.60;;;;;;5057607;28;20029;-67
2023/05/25 03:21:50;;;;;;;7.78;5.60;;;17.80;75.80;;;;;;5057558;28;20028;-67
2023/05/25 03:24:16;;;;;;;8.27;4.93;;;17.80;76.10;;;;;;5057737;28;20028;-65
2023/05/25 03:26:42;;;;;;;8.90;5.80;;;17.70;75.40;;;;;;5057274;28;20072;-66
2023/05/25 03:29:08;;;;;;;8.48;5.50;;;17.70;75.60;;;;;;5057662;28;20021;-66
2023/05/25 03:31:34;;;;;;;6.50;4.80;;;17.70;75.70;;;;;;5057446;28;20060;-65
2023/05/25 03:34:00;;;;;;;7.97;5.10;;;17.60;75.20;;;;;;5057594;28;20026;-66
2023/05/25 03:36:26;;;;;;;7.53;4.45;;;17.70;75.20;;;;;;5057234;28;20091;-66
2023/05/25 03:38:53;;;;;;;10.60;5.25;;;17.70;75.00;;;;;;5057193;28;20029;-66
2023/05/25 03:41:19;;;;;;;9.02;4.72;;;17.70;75.00;;;;;;5057215;28;20029;-66
2023/05/25 03:43:45;;;;;;;8.77;4.90;;;17.70;75.00;;;;;;5057197;28;20024;-65
2023/05/25 03:46:11;;;;;;;7.60;4.82;;;17.70;75.00;;;;;;5057013;28;20025;-67
2023/05/25 03:48:37;;;;;;;7.30;4.25;;;17.70;74.90;;;;;;5057295;28;20040;-65
2023/05/25 03:51:03;;;;;;;6.38;4.50;;;17.70;74.80;;;;;;5057087;28;20491;-65
2023/05/25 03:53:29;;;;;;;7.75;4.65;;;17.70;74.80;;;;;;5056974;28;20085;-66
2023/05/25 03:55:56;;;;;;;4.82;3.72;;;17.70;74.80;;;;;;5056793;28;20117;-66
2023/05/25 03:58:22;;;;;;;6.53;4.35;;;17.70;74.70;;;;;;5056900;28;20036;-65
2023/05/25 04:00:50;;;;;;;6.10;4.30;;;17.80;74.60;;;;;;5057121;28;20025;-65
2023/05/25 04:03:16;;;;;;;5.35;3.97;;;17.80;74.70;;;;;;5056045;28;20017;-66
2023/05/25 04:05:44;;;;;;;6.00;3.90;;;17.80;74.70;;;;;;5057122;28;20044;-65
2023/05/25 04:08:16;;;;;;;5.63;3.70;;;17.90;74.60;;;;;;5056839;28;20028;-66
2023/05/25 04:10:46;;;;;;;6.30;4.32;;;17.90;74.50;;;;;;5056594;28;20362;-65
2023/05/25 04:13:12;;;;;;;6.35;3.85;;;17.90;74.50;;;;;;5056607;28;20021;-66
2023/05/25 04:15:38;;;;;;;5.22;3.83;;;17.90;74.50;;;;;;5056486;28;20086;-66
2023/05/25 04:18:04;;;;;;;5.40;4.00;;;18.00;74.60;;;;;;5057022;28;20411;-66
2023/05/25 04:20:30;;;;;;;5.82;4.22;;;18.10;74.40;;;;;;5056469;28;20112;-66
2023/05/25 04:22:56;;;;;;;7.15;4.15;;;18.20;74.20;;;;;;5056180;28;20033;-67
2023/05/25 04:25:22;;;;;;;5.60;4.05;;;18.20;74.10;;;;;;5056034;28;20469;-66
2023/05/25 04:27:48;;;;;;;5.65;4.00;;;18.30;74.10;;;;;;5056595;28;20346;-67
2023/05/25 04:30:15;;;;;;;6.63;4.75;;;18.40;73.80;;;;;;5056303;28;20036;-65
2023/05/25 04:32:44;;;;;;;7.80;3.97;;;18.40;73.60;;;;;;5056189;28;20021;-65
2023/05/25 04:35:13;;;;;;;6.32;4.07;;;18.50;73.50;;;;;;5056063;28;20036;-66
2023/05/25 04:37:39;;;;;;;6.80;4.20;;;18.60;73.30;;;;;;5056412;28;20063;-65
2023/05/25 04:40:10;;;;;;;8.52;4.40;;;18.60;73.20;;;;;;5056338;28;20029;-66
2023/05/25 04:42:39;;;;;;;5.72;4.10;;;18.80;73.10;;;;;;5056320;28;20029;-66
2023/05/25 04:45:09;;;;;;;6.32;4.00;;;19.10;73.10;;;;;;5055792;28;20082;-66
2023/05/25 04:47:36;;;;;;;5.10;3.67;;;19.20;72.50;;;;;;5056182;28;20025;-65
2023/05/25 04:50:03;;;;;;;5.25;3.58;;;19.30;72.20;;;;;;5055925;28;20042;-66
2023/05/25 04:52:29;;;;;;;6.28;4.18;;;19.20;71.80;;;;;;5056137;28;20017;-66
2023/05/25 04:54:55;;;;;;;7.88;4.90;;;19.20;72.00;;;;;;5055744;28;20074;-66
2023/05/25 04:57:21;;;;;;;8.60;6.00;;;19.20;71.90;;;;;;5055794;28;20025;-66
2023/05/25 04:59:46;;;;;;;7.93;5.60;;;19.20;71.80;;;;;;5056517;28;20025;-66
2023/05/25 05:02:12;;;;;;;10.32;6.95;;;19.10;72.30;;;;;;5055909;28;20074;-67
2023/05/25 05:04:40;;;;;;;9.25;5.38;;;19.20;72.20;;;;;;5055811;28;20473;-66
2023/05/25 05:07:07;;;;;;;6.60;4.97;;;19.30;72.10;;;;;;5055441;28;20366;-66
2023/05/25 05:09:33;;;;;;;7.03;4.50;;;19.40;72.30;;;;;;5055562;28;20091;-65
2023/05/25 05:11:58;;;;;;;7.95;4.55;;;19.50;72.00;;;;;;5056050;28;20419;-65
2023/05/25 05:14:24;;;;;;;7.18;4.20;;;19.50;71.60;;;;;;5055532;28;20021;-65
2023/05/25 05:16:50;;;;;;;8.45;4.25;;;19.60;71.40;;;;;;5055998;28;20430;-65
2023/05/25 05:19:16;;;;;;;5.68;3.83;;;19.60;71.30;;;;;;5055422;28;20024;-66
2023/05/25 05:21:42;;;;;;;5.63;3.80;;;19.70;71.10;;;;;;5055353;28;20029;-66
2023/05/25 05:24:08;;;;;;;5.88;3.78;;;19.70;70.90;;;;;;5055750;28;20025;-66
2023/05/25 05:26:34;;;;;;;5.90;3.60;;;19.80;70.70;;;;;;5054853;28;20045;-66
2023/05/25 05:29:00;;;;;;;5.63;4.05;;;19.80;70.40;;;;;;5054255;28;20065;-65
2023/05/25 05:31:26;;;;;;;6.85;3.88;;;19.80;70.40;;;;;;5055734;28;20021;-65
2023/05/25 05:33:52;;;;;;;5.93;3.78;;;19.80;70.30;;;;;;5055099;28;20342;-65
2023/05/25 05:36:18;;;;;;;4.28;3.40;;;19.80;70.30;;;;;;5055362;28;20024;-66
2023/05/25 05:38:45;;;;;;;4.18;3.25;;;19.90;70.20;;;;;;5055453;28;20114;-66
2023/05/25 05:41:13;;;;;;;4.47;3.20;;;19.90;70.30;;;;;;5055385;28;20059;-66
2023/05/25 05:43:41;;;;;;;4.32;3.25;;;19.90;70.30;;;;;;5055078;28;20021;-67
2023/05/25 05:46:10;;;;;;;5.65;3.83;;;20.00;70.40;;;;;;5055624;28;20108;-66
2023/05/25 05:48:37;;;;;;;6.00;3.13;;;20.10;70.30;;;;;;5055347;28;20025;-66
2023/05/25 05:51:05;;;;;;;3.92;3.40;;;20.10;70.00;;;;;;5055071;28;20032;-66
2023/05/25 05:53:34;;;;;;;5.25;3.47;;;20.20;69.70;;;;;;5055043;28;20057;-66
2023/05/25 05:56:00;;;;;;;4.38;3.05;;;20.20;69.60;;;;;;5055106;28;20442;-66
2023/05/25 05:58:27;;;;;;;4.15;3.10;;;20.30;69.50;;;;;;5054932;28;20037;-66
2023/05/25 06:00:53;;;;;;;4.68;3.17;;;20.20;69.50;;;;;;5054876;28;20033;-66
2023/05/25 06:03:20;;;;;;;4.65;3.55;;;20.30;69.40;;;;;;5054847;28;20033;-66
2023/05/25 06:05:46;;;;;;;4.03;3.20;;;20.30;69.40;;;;;;5054669;28;20033;-66
2023/05/25 06:08:12;;;;;;;5.07;3.30;;;20.40;69.50;;;;;;5053887;28;20070;-66
2023/05/25 06:10:38;;;;;;;3.83;3.05;;;20.50;69.60;;;;;;5054784;28;20344;-67
2023/05/25 06:13:07;;;;;;;3.45;2.80;;;20.60;69.40;;;;;;5055079;28;20098;-67
2023/05/25 06:15:34;;;;;;;5.60;3.20;;;20.70;69.30;;;;;;5070145;28;20029;-66
2023/05/25 06:18:00;;;;;;;7.00;3.10;;;20.90;69.10;;;;;;5054669;28;20072;-66
2023/05/25 06:20:26;;;;;;;4.90;3.38;;;21.10;68.70;;;;;;5055259;28;20024;-67
2023/05/25 06:22:52;;;;;;;4.72;3.53;;;21.30;68.40;;;;;;5055244;28;20362;-67
2023/05/25 06:25:19;;;;;;;6.22;3.40;;;21.50;68.10;;;;;;5053297;28;20033;-66
2023/05/25 06:27:45;;;;;;;6.70;3.70;;;21.70;67.80;;;;;;5057356;28;20045;-67
2023/05/25 06:30:11;;;;;;;5.43;3.80;;;21.90;67.50;;;;;;5058526;28;20442;-67
2023/05/25 06:32:37;;;;;;;5.68;4.00;;;22.20;67.20;;;;;;5058432;28;20327;-66
2023/05/25 06:35:03;;;;;;;5.80;3.50;;;22.60;66.30;;;;;;5058721;28;20406;-66
2023/05/25 06:37:34;;;;;;;4.68;3.42;;;23.10;65.40;;;;;;5058501;28;20025;-67
2023/05/25 06:40:01;;;;;;;5.00;3.50;;;23.30;64.50;;;;;;5058647;28;20025;-66
2023/05/25 06:42:27;;;;;;;4.47;3.20;;;23.50;64.10;;;;;;5058586;28;20350;-66
2023/05/25 06:44:53;;;;;;;6.13;3.38;;;23.60;63.60;;;;;;5058253;28;20079;-65
2023/05/25 06:47:19;;;;;;;4.97;3.50;;;23.50;63.40;;;;;;5058273;28;20033;-67
2023/05/25 06:49:45;;;;;;;5.03;3.50;;;23.40;63.40;;;;;;5058481;28;20029;-66
2023/05/25 06:52:11;;;;;;;5.78;3.25;;;23.30;63.50;;;;;;5058454;28;20353;-66
2023/05/25 06:54:37;;;;;;;3.05;2.75;;;23.10;63.90;;;;;;5058075;28;20037;-66
2023/05/25 06:57:02;;;;;;;5.20;3.40;;;23.00;64.10;;;;;;5058295;28;20013;-65
2023/05/25 06:59:28;;;;;;;7.28;3.63;;;22.80;64.40;;;;;;5058250;28;20028;-67
2023/05/25 07:01:54;;;;;;;6.38;4.03;;;22.70;64.80;;;;;;5057882;28;20025;-66
2023/05/25 07:04:22;;;;;;;8.10;5.10;;;22.50;65.20;;;;;;5057850;28;20083;-66
2023/05/25 07:06:48;;;;;;;8.88;5.32;;;22.20;65.70;;;;;;5057774;28;20450;-66
2023/05/25 07:09:14;;;;;;;9.93;5.85;;;21.90;66.30;;;;;;5057880;28;20074;-67
2023/05/25 07:11:40;;;;;;;7.93;5.28;;;21.60;66.70;;;;;;5058037;28;20051;-66
2023/05/25 07:14:06;;;;;;;8.50;5.22;;;21.40;67.30;;;;;;5057697;28;20100;-66
2023/05/25 07:16:33;;;;;;;8.85;6.07;;;21.10;67.80;;;;;;5057571;28;20025;-66
2023/05/25 07:18:59;;;;;;;9.18;5.90;;;20.90;68.30;;;;;;5057897;28;20086;-66
2023/05/25 07:21:24;;;;;;;6.78;4.25;;;20.70;68.60;;;;;;5057802;28;20037;-66
2023/05/25 07:23:50;;;;;;;8.70;4.47;;;20.50;68.60;;;;;;5056607;28;20496;-66
2023/05/25 07:26:16;;;;;;;9.48;4.50;;;20.40;68.70;;;;;;5057156;28;20041;-66
2023/05/25 07:28:42;;;;;;;9.77;4.88;;;20.20;68.90;;;;;;5057635;28;20025;-66
2023/05/25 07:31:09;;;;;;;7.15;4.28;;;20.00;69.10;;;;;;5057371;28;20029;-67
2023/05/25 07:33:35;;;;;;;8.25;4.40;;;19.90;69.20;;;;;;5057675;28;20108;-67
2023/05/25 07:36:01;;;;;;;8.10;5.00;;;19.80;69.60;;;;;;5057338;28;20045;-67
2023/05/25 07:38:27;;;;;;;7.53;4.38;;;19.70;70.00;;;;;;5056938;28;20024;-67
2023/05/25 07:40:53;;;;;;;7.10;4.30;;;19.60;70.10;;;;;;5057271;28;20126;-66
2023/05/25 07:43:19;;;;;;;8.00;4.35;;;19.50;70.50;;;;;;5057124;28;20029;-67
2023/05/25 07:45:45;;;;;;;7.50;4.45;;;19.50;70.70;;;;;;5056995;28;20029;-66
2023/05/25 07:48:11;;;;;;;7.80;4.22;;;19.40;70.90;;;;;;5057053;28;20029;-67
2023/05/25 07:50:37;;;;;;;7.43;4.32;;;19.40;70.90;;;;;;5056933;28;20453;-67
2023/05/25 07:53:03;;;;;;;7.95;5.00;;;19.30;71.10;;;;;;5057131;28;20025;-66
2023/05/25 07:55:29;;;;;;;6.93;4.13;;;19.30;71.90;;;;;;5057110;28;20043;-65
2023/05/25 07:57:55;;;;;;;5.32;3.92;;;19.20;71.20;;;;;;5056940;28;20025;-67
2023/05/25 08:00:21;;;;;;;7.05;4.15;;;19.20;71.50;;;;;;5055883;28;20044;-66
2023/05/25 08:02:47;;;;;;;7.70;4.82;;;19.30;71.20;;;;;;5057379;28;20021;-67
2023/05/25 08:05:13;;;;;;;8.02;5.22;;;19.30;71.60;;;;;;5056651;28;20112;-66
2023/05/25 08:07:40;;;;;;;8.30;5.35;;;19.40;71.50;;;;;;5056958;28;20095;-66
2023/05/25 08:10:07;;;;;;;10.32;5.63;;;19.40;71.80;;;;;;5056932;28;20029;-66
2023/05/25 08:12:33;;;;;;;7.82;5.35;;;19.60;71.80;;;;;;5056871;28;20092;-66
2023/05/25 08:14:59;;;;;;;10.75;6.10;;;19.80;71.70;;;;;;5056547;28;20100;-67
2023/05/25 08:17:25;;;;;;;7.50;5.05;;;20.00;73.30;;;;;;5056544;28;20028;-66
2023/05/25 08:19:51;;;;;;;6.93;4.68;;;20.40;71.70;;;;;;5056488;28;20450;-67
2023/05/25 08:22:17;;;;;;;6.35;4.30;;;20.80;71.40;;;;;;5056441;28;20052;-67
2023/05/25 08:24:43;;;;;;;9.20;4.65;;;21.10;70.80;;;;;;5056347;28;20049;-65
2023/05/25 08:27:09;;;;;;;6.03;4.00;;;21.40;69.90;;;;;;5056053;28;20078;-65
2023/05/25 08:29:35;;;;;;;5.45;3.90;;;21.50;69.10;;;;;;5056555;28;20071;-65
2023/05/25 08:32:01;;;;;;;6.25;3.80;;;21.70;68.70;;;;;;5056457;28;20021;-65
2023/05/25 08:34:28;;;;;;;5.35;3.55;;;21.80;68.30;;;;;;5056119;28;20021;-66
2023/05/25 08:36:56;;;;;;;4.80;3.30;;;21.90;67.70;;;;;;5056425;28;20039;-65
2023/05/25 08:39:22;;;;;;;3.25;2.63;;;22.00;67.40;;;;;;5056015;28;20025;-66
2023/05/25 08:41:50;;;;;;;5.00;2.30;;;22.00;66.70;;;;;;5056309;28;20025;-66
2023/05/25 08:44:16;;;;;;;6.07;2.38;;;22.00;66.30;;;;;;5055932;28;20033;-65
2023/05/25 08:46:43;;;;;;;3.97;2.10;;;22.00;65.90;;;;;;5056050;28;20021;-66
2023/05/25 08:49:11;;;;;;;4.30;1.80;;;21.90;65.80;;;;;;5055373;28;20033;-64
2023/05/25 08:51:46;;;;;;;4.10;2.05;;;21.90;65.90;;;;;;5055985;28;20130;-65
2023/05/25 08:54:13;;;;;;;3.22;2.10;;;21.80;65.60;;;;;;5056040;28;20075;-65
2023/05/25 08:56:47;;;;;;;3.03;2.13;;;21.80;65.50;;;;;;5055599;28;20138;-65
2023/05/25 08:59:25;;;;;;;4.20;2.10;;;21.60;65.70;;;;;;5070727;28;20029;-65
2023/05/25 09:01:57;;;;;;;4.00;2.50;;;21.50;65.80;;;;;;5056097;28;20155;-66
2023/05/25 09:04:24;;;;;;;3.55;2.55;;;21.50;66.00;;;;;;5055783;28;20396;-65
2023/05/25 09:06:50;;;;;;;3.20;2.55;;;21.50;66.10;;;;;;5055682;28;20071;-66
2023/05/25 09:09:17;;;;;;;3.58;2.60;;;21.50;66.30;;;;;;5055391;28;20116;-66
2023/05/25 09:11:44;;;;;;;3.45;2.40;;;21.40;66.30;;;;;;5055369;28;20021;-65
2023/05/25 09:14:10;;;;;;;6.65;3.20;;;21.40;66.40;;;;;;5055928;28;20021;-65
2023/05/25 09:16:37;;;;;;;3.90;2.50;;;21.40;66.50;;;;;;5055215;28;20021;-65
2023/05/25 09:19:03;;;;;;;4.47;2.92;;;21.40;66.60;;;;;;5055301;28;20040;-66
2023/05/25 09:21:29;;;;;;;4.75;2.80;;;21.50;66.60;;;;;;5055337;28;20017;-65
2023/05/25 09:23:55;;;;;;;3.67;2.90;;;21.60;66.50;;;;;;5055301;28;20032;-65
2023/05/25 09:26:21;;;;;;;4.18;2.85;;;21.60;66.40;;;;;;5054921;28;20123;-66
2023/05/25 09:28:47;;;;;;;4.45;3.10;;;21.70;66.60;;;;;;5055531;28;20104;-66
2023/05/25 09:31:16;;;;;;;3.33;2.75;;;21.90;66.60;;;;;;5055200;28;20447;-66
2023/05/25 09:33:42;;;;;;;3.08;2.75;;;22.20;66.20;;;;;;5055448;28;20025;-66
2023/05/25 09:36:09;;;;;;;3.42;2.65;;;22.40;65.40;;;;;;5055576;28;20043;-65
2023/05/25 09:38:35;;;;;;;3.83;3.00;;;22.40;64.80;;;;;;5055366;28;20055;-65
2023/05/25 09:41:03;;;;;;;4.55;2.70;;;22.50;64.80;;;;;;5055568;28;20430;-65
2023/05/25 09:43:30;;;;;;;5.35;3.08;;;22.60;64.50;;;;;;5055024;28;20060;-65
2023/05/25 09:45:56;;;;;;;2.78;2.50;;;22.70;63.90;;;;;;5054901;28;20073;-66
2023/05/25 09:48:23;;;;;;;3.10;2.08;;;22.80;63.50;;;;;;5055045;28;20017;-66
2023/05/25 09:50:50;;;;;;;3.53;2.30;;;22.90;63.10;;;;;;5055023;28;20472;-66
2023/05/25 09:53:16;;;;;;;3.75;2.30;;;23.10;62.40;;;;;;5055232;28;20118;-65
2023/05/25 09:55:42;;;;;;;3.20;2.53;;;23.40;62.10;;;;;;5055138;28;20369;-66
2023/05/25 09:58:08;;;;;;;3.75;2.47;;;23.60;61.60;;;;;;5055433;28;20021;-65
2023/05/25 10:00:34;;;;;;;4.72;2.45;;;23.90;60.90;;;;;;5055897;28;20051;-65
2023/05/25 10:02:59;;;;;;;3.28;2.35;;;23.90;59.80;;;;;;5059103;28;20430;-66
2023/05/25 10:05:25;;;;;;;3.88;2.55;;;23.90;60.30;;;;;;5059376;28;20541;-66
2023/05/25 10:07:54;;;;;;;2.60;2.40;;;23.90;59.70;;;;;;5058969;28;20032;-65
2023/05/25 10:10:21;;;;;;;4.07;2.78;;;23.80;59.50;;;;;;5058897;28;20468;-65
2023/05/25 10:12:51;;;;;;;4.35;2.50;;;23.70;58.90;;;;;;5074876;28;20044;-65
2023/05/25 10:15:19;;;;;;;2.40;2.20;;;23.70;59.40;;;;;;5059341;28;20029;-65
2023/05/25 10:17:56;;;;;;;4.32;2.10;;;23.80;59.60;;;;;;5074294;28;20104;-66
2023/05/25 10:20:25;;;;;;;3.53;2.40;;;23.90;59.10;;;;;;5059010;28;20052;-66
2023/05/25 10:22:55;;;;;;;3.95;2.35;;;24.10;59.10;;;;;;5058698;28;20331;-65
2023/05/25 10:25:21;;;;;;;4.47;2.58;;;24.30;58.50;;;;;;5058417;28;20079;-66
2023/05/25 10:27:52;;;;;;;3.47;2.60;;;24.30;56.60;;;;;;5058585;28;20037;-66
2023/05/25 10:30:18;;;;;;;3.20;2.60;;;24.40;56.90;;;;;;5059112;28;20053;-65
2023/05/25 10:32:46;;;;;;;3.33;2.58;;;24.30;56.80;;;;;;5058531;28;20055;-65
2023/05/25 10:35:13;;;;;;;2.97;2.60;;;24.30;55.20;;;;;;5058342;28;20021;-65
2023/05/25 10:37:39;;;;;;;4.60;2.60;;;24.30;56.70;;;;;;5058674;28;20021;-64
2023/05/25 10:40:07;;;;;;;3.28;2.22;;;24.40;56.80;;;;;;5058658;28;20025;-65
2023/05/25 10:42:35;;;;;;;4.25;2.60;;;24.60;56.60;;;;;;5058609;28;20063;-66
2023/05/25 10:45:05;;;;;;;2.78;2.53;;;24.60;56.10;;;;;;5058770;28;20024;-65
2023/05/25 10:47:31;;;;;;;3.00;2.60;;;24.70;54.80;;;;;;5058089;28;20476;-66
2023/05/25 10:50:00;;;;;;;4.03;2.75;;;24.80;55.30;;;;;;5058385;28;20037;-65
2023/05/25 10:52:28;;;;;;;5.75;2.67;;;24.90;54.90;;;;;;5058410;28;20108;-66
2023/05/25 10:55:00;;;;;;;4.47;2.95;;;25.00;54.90;;;;;;5057966;28;20032;-66
2023/05/25 10:57:27;;;;;;;4.72;2.88;;;25.20;55.80;;;;;;5057975;28;20036;-66
2023/05/25 10:59:59;;;;;;;4.10;2.70;;;25.20;55.40;;;;;;5057750;28;20104;-66
2023/05/25 11:02:30;;;;;;;4.05;3.22;;;25.20;54.50;;;;;;5058348;28;20443;-65
2023/05/25 11:05:21;;;;;;;5.40;2.92;;;25.30;54.60;;;;;;5044606;28;20063;-66
2023/05/25 11:07:58;;;;;;;4.03;3.25;;;25.20;53.90;;;;;;5036111;28;20037;-66
2023/05/25 11:10:49;;;;;;;3.25;2.83;;;25.10;54.00;;;;;;5037403;28;20025;-66
2023/05/25 11:13:42;;;;;;;5.30;2.97;;;25.00;54.10;;;;;;5037385;28;20044;-66
2023/05/25 11:16:26;;;;;;;4.00;3.47;;;25.00;54.50;;;;;;5031613;28;20025;-66
2023/05/25 11:18:58;;;;;;;6.07;3.58;;;25.00;53.60;;;;;;5037677;28;20080;-66
2023/05/25 11:21:26;;;;;;;3.78;3.20;;;25.00;54.80;;;;;;5037950;28;20032;-66
2023/05/25 11:23:54;;;;;;;3.17;2.90;;;25.00;53.50;;;;;;5037911;28;20105;-66
2023/05/25 11:26:21;;;;;;;4.57;3.33;;;25.00;54.40;;;;;;5037395;28;20050;-66
2023/05/25 11:28:47;;;;;;;4.63;3.50;;;24.90;54.10;;;;;;5037554;28;20040;-66
2023/05/25 11:31:13;;;;;;;3.92;3.17;;;24.90;54.40;;;;;;5037491;28;20021;-66
2023/05/25 11:33:43;;;;;;;4.03;3.10;;;25.00;54.60;;;;;;5037408;28;20022;-66
2023/05/25 11:36:10;;;;;;;4.88;3.20;;;25.00;54.80;;;;;;5037297;28;20025;-65
2023/05/25 11:38:44;;;;;;;3.60;3.10;;;25.10;54.60;;;;;;5037935;28;20040;-66
2023/05/25 11:41:17;;;;;;;3.88;2.90;;;25.30;54.60;;;;;;5037348;28;20029;-66
2023/05/25 11:43:46;;;;;;;;;;;25.40;54.00;;;;;;5037719;28;20039;-66
2023/05/25 11:46:13;;;;;;;3.78;3.30;;;25.50;53.20;;;;;;5037083;28;19909;-66
2023/05/25 11:48:44;;;;;;;5.57;3.40;;;25.60;53.80;;;;;;5037194;28;20347;-66
2023/05/25 11:51:10;;;;;;;5.97;3.35;;;25.70;53.20;;;;;;5036187;28;20063;-66
2023/05/25 11:53:43;;;;;;;4.45;3.38;;;25.80;53.40;;;;;;5037396;28;20186;-67
2023/05/25 11:56:11;;;;;;;4.78;3.55;;;25.90;52.80;;;;;;5036998;28;20346;-66
2023/05/25 11:58:37;;;;;;;4.88;3.70;;;25.90;52.70;;;;;;5036966;28;20485;-66
2023/05/25 12:01:33;;;;;;;5.03;3.85;;;26.00;52.50;;;;;;5037230;28;20036;-66
2023/05/25 12:04:08;;;;;;;6.38;4.22;;;26.10;52.50;;;;;;4976434;28;20126;-66
2023/05/25 12:06:35;;;;;;;4.40;3.70;;;26.20;52.30;;;;;;4976181;28;20030;-66
2023/05/25 12:09:07;;;;;;;4.72;3.97;;;26.20;52.10;;;;;;4976490;28;20030;-66
2023/05/25 12:11:37;;;;;;;6.30;3.72;;;26.20;51.80;;;;;;4977132;28;20093;-66
2023/05/25 12:14:05;;;;;;;7.00;4.47;;;26.30;51.80;;;;;;4976286;28;20121;-66
2023/05/25 12:16:33;;;;;;;4.78;4.13;;;26.40;51.80;;;;;;4976101;28;20110;-66
2023/05/25 12:19:00;;;;;;;6.05;4.43;;;26.50;51.80;;;;;;4976146;28;20169;-66
2023/05/25 12:21:27;;;;;;;6.28;4.30;;;26.50;50.90;;;;;;4976156;28;20105;-66
2023/05/25 12:23:53;;;;;;;4.53;3.67;;;26.50;50.40;;;;;;4959186;28;20031;-66
2023/05/25 12:26:20;;;;;;;5.15;4.03;;;26.50;50.50;;;;;;4975255;28;20055;-66
2023/05/25 12:29:04;;;;;;;6.70;3.92;;;26.50;50.80;;;;;;4975896;28;20032;-66
2023/05/25 12:31:33;;;;;;;5.40;4.05;;;26.70;50.80;;;;;;4975906;28;20046;-66
2023/05/25 12:34:18;;;;;;;5.18;4.07;;;26.90;50.80;;;;;;4975905;28;20037;-66
2023/05/25 12:36:50;;;;;;;5.03;3.88;;;26.90;50.40;;;;;;4976026;28;20034;-66
2023/05/25 12:39:30;;;;;;;7.13;4.03;;;27.00;49.90;;;;;;4979804;28;20468;-66
2023/05/25 12:41:58;;;;;;;5.45;3.75;;;27.00;49.40;;;;;;5036501;28;20034;-65
2023/05/25 12:44:30;;;;;;;4.65;3.80;;;27.10;49.20;;;;;;5036302;28;20446;-66
2023/05/25 12:47:11;;;;;;;4.60;3.80;;;27.10;49.40;;;;;;5036511;28;20022;-66
2023/05/25 12:49:39;;;;;;;5.53;4.00;;;27.20;49.10;;;;;;5036579;28;20036;-66